createdAt,value
2022-08-03T00:01:44.500Z,67.88
2022-08-03T00:04:12.432Z,68.01
2022-08-03T00:06:40.166Z,67.99
2022-08-03T00:09:08.371Z,67.96
2022-08-03T00:11:37.101Z,68.04
2022-08-03T00:14:05.783Z,68.06
2022-08-03T00:16:34.344Z,67.82
2022-08-03T00:19:03.286Z,67.84
2022-08-03T00:21:31.048Z,68.06
2022-08-03T00:23:58.799Z,68.06
2022-08-03T00:26:26.628Z,68.23
2022-08-03T00:28:54.389Z,68.16
2022-08-03T00:31:35.226Z,68.26
2022-08-03T00:34:08.131Z,68.42
2022-08-03T00:36:36.225Z,68.58
2022-08-03T00:39:04.282Z,68.52
2022-08-03T00:41:32.052Z,68.56
2022-08-03T00:43:59.804Z,68.63
2022-08-03T00:46:27.648Z,68.58
2022-08-03T00:48:55.522Z,68.68
2022-08-03T00:51:24.069Z,68.77
2022-08-03T00:53:51.822Z,68.66
2022-08-03T00:56:19.778Z,68.86
2022-08-03T00:58:47.683Z,68.76
2022-08-03T01:01:16.637Z,68.93
2022-08-03T01:03:45.519Z,68.91
2022-08-03T01:06:20.091Z,68.94
2022-08-03T01:09:22.944Z,69.01
2022-08-03T01:12:04.045Z,69.26
2022-08-03T01:14:41.715Z,69.24
2022-08-03T01:17:19.353Z,69.05
2022-08-03T01:19:56.770Z,69.20
2022-08-03T01:22:33.476Z,69.18
2022-08-03T01:25:16.331Z,69.20
2022-08-03T01:27:49.992Z,69.24
2022-08-03T01:30:17.860Z,69.27
2022-08-03T01:33:00.888Z,69.40
2022-08-03T01:35:43.302Z,69.45
2022-08-03T01:38:15.306Z,69.52
2022-08-03T01:40:44.960Z,69.37
2022-08-03T01:43:55.312Z,69.56
2022-08-03T01:46:09.712Z,69.73
2022-08-03T01:48:40.014Z,69.53
2022-08-03T01:51:10.573Z,69.70
2022-08-03T01:53:43.994Z,69.77
2022-08-03T01:56:13.980Z,69.79
2022-08-03T01:58:44.534Z,69.80
2022-08-03T02:01:13.791Z,69.90
2022-08-03T02:04:00.301Z,69.81
2022-08-03T02:06:59.987Z,69.91
2022-08-03T02:09:22.079Z,69.96
2022-08-03T02:11:52.097Z,70.04
2022-08-03T02:14:22.085Z,69.92
2022-08-03T02:16:51.267Z,69.97
2022-08-03T02:19:19.690Z,70.10
2022-08-03T02:21:56.803Z,70.09
2022-08-03T02:24:30.044Z,70.05
2022-08-03T02:26:59.229Z,70.13
2022-08-03T02:29:39.688Z,70.11
2022-08-03T02:32:15.119Z,70.10
2022-08-03T02:34:47.608Z,70.05
2022-08-03T02:37:18.667Z,70.15
2022-08-03T02:39:47.996Z,70.26
2022-08-03T02:42:18.879Z,70.24
2022-08-03T02:44:50.465Z,70.29
2022-08-03T02:47:21.421Z,70.19
2022-08-03T02:49:52.390Z,70.28
2022-08-03T02:52:23.411Z,70.09
2022-08-03T02:54:55.055Z,70.18
2022-08-03T02:57:25.713Z,70.08
2022-08-03T02:59:55.163Z,70.45
2022-08-03T03:02:24.975Z,70.54
2022-08-03T03:04:58.079Z,70.46
2022-08-03T03:07:51.490Z,70.16
2022-08-03T03:10:22.679Z,70.26
2022-08-03T03:12:52.775Z,70.57
2022-08-03T03:15:21.067Z,70.63
2022-08-03T03:17:51.285Z,70.75
2022-08-03T03:20:29.068Z,70.39
2022-08-03T03:23:00.322Z,70.42
2022-08-03T03:25:31.821Z,70.61
2022-08-03T03:28:02.248Z,70.86
2022-08-03T03:30:30.200Z,70.84
2022-08-03T03:32:58.995Z,70.63
2022-08-03T03:35:27.837Z,70.46
2022-08-03T03:37:56.581Z,70.35
2022-08-03T03:40:24.927Z,70.45
2022-08-03T03:42:52.858Z,70.53
2022-08-03T03:45:22.137Z,70.83
2022-08-03T03:47:50.323Z,71.10
2022-08-03T03:50:19.558Z,71.08
2022-08-03T03:52:47.297Z,70.79
2022-08-03T03:55:18.607Z,70.56
2022-08-03T03:57:46.764Z,70.70
2022-08-03T04:00:16.732Z,70.93
2022-08-03T04:02:46.200Z,71.28
2022-08-03T04:05:33.798Z,71.19
2022-08-03T04:08:25.235Z,71.36
2022-08-03T04:11:02.886Z,71.27
2022-08-03T04:13:37.792Z,71.04
2022-08-03T04:16:07.977Z,71.00
2022-08-03T04:18:39.073Z,71.11
2022-08-03T04:21:11.394Z,71.45
2022-08-03T04:23:44.053Z,71.50
2022-08-03T04:26:15.132Z,71.54
2022-08-03T04:28:48.123Z,71.77
2022-08-03T04:31:18.091Z,71.88
2022-08-03T04:33:46.952Z,71.87
2022-08-03T04:36:21.219Z,71.89
2022-08-03T04:39:04.504Z,71.99
2022-08-03T04:42:07.020Z,71.95
2022-08-03T04:44:28.444Z,72.01
2022-08-03T04:46:58.360Z,71.97
2022-08-03T04:49:27.027Z,71.89
2022-08-03T04:51:54.866Z,72.04
2022-08-03T04:54:22.636Z,72.00
2022-08-03T04:56:50.335Z,72.10
2022-08-03T04:59:18.166Z,72.01
2022-08-03T05:01:46.050Z,72.15
2022-08-03T05:04:14.570Z,72.01
2022-08-03T05:06:48.070Z,72.24
2022-08-03T05:09:49.848Z,72.15
2022-08-03T05:12:08.953Z,72.24
2022-08-03T05:14:38.854Z,72.20
2022-08-03T05:17:07.288Z,72.19
2022-08-03T05:19:35.337Z,72.27
2022-08-03T05:22:03.380Z,72.17
2022-08-03T05:24:31.051Z,72.22
2022-08-03T05:26:58.803Z,72.11
2022-08-03T05:29:26.560Z,72.17
2022-08-03T05:31:54.318Z,72.16
2022-08-03T05:34:22.074Z,72.21
2022-08-03T05:36:49.741Z,72.32
2022-08-03T05:39:17.501Z,72.39
2022-08-03T05:41:45.294Z,72.42
2022-08-03T05:44:13.023Z,72.29
2022-08-03T05:46:40.718Z,72.49
2022-08-03T05:49:08.514Z,72.47
2022-08-03T05:51:37.219Z,72.41
2022-08-03T05:54:05.158Z,72.47
2022-08-03T05:56:32.992Z,72.46
2022-08-03T05:59:16.322Z,72.40
2022-08-03T06:01:48.580Z,72.48
2022-08-03T06:04:19.173Z,72.50
2022-08-03T06:06:47.617Z,72.55
2022-08-03T06:09:18.066Z,72.53
2022-08-03T06:11:45.998Z,72.52
2022-08-03T06:14:13.781Z,72.60
2022-08-03T06:16:41.543Z,72.48
2022-08-03T06:19:09.457Z,72.37
2022-08-03T06:21:37.225Z,72.47
2022-08-03T06:24:08.073Z,72.55
2022-08-03T06:26:35.878Z,72.38
2022-08-03T06:29:03.897Z,72.22
2022-08-03T06:31:32.364Z,72.26
2022-08-03T06:34:33.749Z,72.21
2022-08-03T06:36:52.279Z,72.31
2022-08-03T06:39:24.349Z,72.37
2022-08-03T06:41:53.544Z,72.51
2022-08-03T06:44:21.324Z,72.59
2022-08-03T06:46:49.374Z,72.69
2022-08-03T06:49:17.674Z,72.63
2022-08-03T06:52:05.090Z,72.62
2022-08-03T06:54:33.950Z,72.67
2022-08-03T06:57:01.791Z,72.73
2022-08-03T07:00:06.051Z,72.72
2022-08-03T07:02:19.880Z,72.83
2022-08-03T07:04:50.633Z,72.70
2022-08-03T07:07:19.482Z,72.84
2022-08-03T07:09:55.660Z,72.74
2022-08-03T07:12:29.830Z,72.85
2022-08-03T07:15:02.126Z,72.85
2022-08-03T07:17:32.822Z,72.86
2022-08-03T07:20:01.814Z,72.88
2022-08-03T07:22:29.696Z,72.90
2022-08-03T07:24:57.864Z,72.86
2022-08-03T07:27:27.139Z,72.90
2022-08-03T07:29:55.726Z,72.88
2022-08-03T07:32:24.192Z,72.91
2022-08-03T07:34:53.098Z,72.91
2022-08-03T07:37:23.520Z,72.98
2022-08-03T07:39:51.296Z,73.05
2022-08-03T07:42:19.263Z,72.98
2022-08-03T07:44:47.123Z,72.65
2022-08-03T07:47:22.435Z,72.92
2022-08-03T07:49:50.881Z,72.59
2022-08-03T07:52:54.235Z,72.44
2022-08-03T07:55:25.120Z,72.64
2022-08-03T07:58:12.309Z,72.77
2022-08-03T08:00:40.223Z,72.58
2022-08-03T08:03:08.364Z,71.40
2022-08-03T08:05:37.377Z,71.09
2022-08-03T08:08:05.883Z,70.93
2022-08-03T08:10:33.980Z,71.13
2022-08-03T08:13:01.913Z,70.88
2022-08-03T08:15:30.103Z,70.16
2022-08-03T08:18:00.219Z,70.26
2022-08-03T08:20:31.731Z,70.19
2022-08-03T08:23:17.302Z,69.92
2022-08-03T08:25:56.330Z,69.23
2022-08-03T08:28:32.935Z,69.70
2022-08-03T08:31:02.135Z,69.41
2022-08-03T08:33:54.217Z,69.02
2022-08-03T08:36:19.434Z,69.07
2022-08-03T08:38:47.882Z,68.83
2022-08-03T08:41:16.254Z,68.32
2022-08-03T08:43:44.056Z,67.78
2022-08-03T08:46:23.274Z,67.60
2022-08-03T08:48:53.830Z,66.63
2022-08-03T08:51:22.702Z,67.00
2022-08-03T08:53:53.925Z,66.48
2022-08-03T08:56:26.021Z,66.18
2022-08-03T08:58:58.664Z,65.89
2022-08-03T09:01:27.557Z,65.35
2022-08-03T09:03:55.553Z,64.82
2022-08-03T09:06:24.409Z,64.26
2022-08-03T09:08:52.432Z,63.73
2022-08-03T09:11:57.589Z,63.32
2022-08-03T09:14:37.070Z,62.44
2022-08-03T09:17:02.274Z,62.06
2022-08-03T09:19:31.875Z,61.50
2022-08-03T09:22:13.406Z,61.15
2022-08-03T09:25:22.877Z,60.62
2022-08-03T09:27:47.260Z,59.96
2022-08-03T09:30:33.155Z,59.82
2022-08-03T09:33:05.055Z,58.78
2022-08-03T09:38:26.473Z,57.75
2022-08-03T09:40:59.878Z,57.83
2022-08-03T09:43:28.821Z,57.33
2022-08-03T09:46:05.219Z,56.93
2022-08-03T09:48:37.358Z,56.57
2022-08-03T09:51:14.467Z,55.87
2022-08-03T09:53:59.626Z,55.18
2022-08-03T09:56:41.287Z,54.64
2022-08-03T09:59:10.710Z,54.16
2022-08-03T10:01:41.929Z,53.83
2022-08-03T10:04:15.314Z,53.50
2022-08-03T10:06:46.897Z,53.08
2022-08-03T10:09:16.620Z,52.79
2022-08-03T10:11:47.053Z,52.41
2022-08-03T10:14:21.012Z,52.19
2022-08-03T10:16:49.734Z,51.60
2022-08-03T10:19:17.644Z,51.50
2022-08-03T10:21:53.759Z,50.93
2022-08-03T10:24:27.379Z,50.66
2022-08-03T10:27:07.512Z,50.21
2022-08-03T10:29:39.572Z,49.97
2022-08-03T10:32:22.294Z,49.83
2022-08-03T10:34:52.332Z,49.69
2022-08-03T10:37:32.251Z,49.19
2022-08-03T10:40:01.006Z,48.58
2022-08-03T10:42:31.463Z,48.56
2022-08-03T10:45:16.568Z,48.50
2022-08-03T10:47:45.396Z,48.33
2022-08-03T10:50:13.469Z,47.70
2022-08-03T10:52:55.867Z,47.17
2022-08-03T10:55:51.614Z,47.18
2022-08-03T10:58:53.363Z,47.07
2022-08-03T11:02:00.304Z,46.82
2022-08-03T11:04:30.334Z,46.68
2022-08-03T11:07:17.609Z,46.93
2022-08-03T11:09:50.882Z,46.58
2022-08-03T11:12:21.331Z,46.62
2022-08-03T11:15:00.302Z,46.46
2022-08-03T11:17:28.189Z,46.18
2022-08-03T11:19:57.972Z,46.07
2022-08-03T11:22:28.292Z,46.05
2022-08-03T11:24:57.411Z,46.08
2022-08-03T11:27:27.461Z,46.28
2022-08-03T11:30:10.301Z,46.31
2022-08-03T11:32:38.342Z,46.19
2022-08-03T11:35:24.704Z,46.08
2022-08-03T11:38:03.604Z,45.90
2022-08-03T11:40:52.972Z,45.74
2022-08-03T11:43:37.499Z,45.58
2022-08-03T11:46:07.266Z,45.46
2022-08-03T11:48:37.924Z,45.53
2022-08-03T11:51:08.450Z,45.58
2022-08-03T11:53:42.122Z,45.52
2022-08-03T11:56:12.638Z,45.68
2022-08-03T11:58:57.732Z,45.67
2022-08-03T12:01:41.711Z,45.58
2022-08-03T12:04:10.828Z,44.99
2022-08-03T12:06:56.898Z,45.21
2022-08-03T12:09:24.629Z,45.33
2022-08-03T12:12:00.305Z,44.91
2022-08-03T12:14:50.624Z,45.04
2022-08-03T12:17:18.712Z,45.07
2022-08-03T12:19:46.757Z,45.05
2022-08-03T12:22:16.854Z,45.05
2022-08-03T12:24:46.777Z,45.17
2022-08-03T12:27:26.513Z,45.20
2022-08-03T12:29:58.237Z,45.06
2022-08-03T12:32:27.997Z,45.20
2022-08-03T12:35:05.986Z,45.28
2022-08-03T12:37:34.191Z,45.10
2022-08-03T12:40:10.032Z,44.99
2022-08-03T12:42:39.742Z,45.23
2022-08-03T12:45:24.043Z,45.36
2022-08-03T12:47:54.270Z,45.25
2022-08-03T12:50:33.476Z,45.16
2022-08-03T12:53:07.864Z,45.25
2022-08-03T12:55:56.253Z,45.23
2022-08-03T12:58:35.813Z,45.14
2022-08-03T13:01:10.168Z,45.46
2022-08-03T13:03:50.245Z,45.26
2022-08-03T13:06:25.622Z,45.04
2022-08-03T13:09:07.540Z,45.23
2022-08-03T13:11:57.966Z,45.11
2022-08-03T13:14:23.744Z,45.22
2022-08-03T13:16:52.141Z,45.22
2022-08-03T13:19:20.304Z,45.12
2022-08-03T13:22:01.289Z,45.06
2022-08-03T13:24:33.783Z,45.10
2022-08-03T13:28:01.811Z,45.03
2022-08-03T13:29:50.915Z,44.89
2022-08-03T13:32:18.926Z,44.79
2022-08-03T13:34:46.864Z,44.79
2022-08-03T13:37:15.644Z,44.82
2022-08-03T13:39:58.149Z,44.77
2022-08-03T13:42:31.999Z,44.63
2022-08-03T13:45:00.922Z,44.76
2022-08-03T13:47:28.846Z,44.92
2022-08-03T13:50:01.807Z,44.56
2022-08-03T13:52:36.228Z,44.89
2022-08-03T13:55:06.017Z,44.52
2022-08-03T13:58:04.905Z,44.60
2022-08-03T14:00:28.981Z,44.74
2022-08-03T14:03:12.509Z,44.54
2022-08-03T14:05:43.313Z,44.58
2022-08-03T14:08:11.970Z,44.63
2022-08-03T14:10:44.001Z,44.49
2022-08-03T14:13:14.483Z,44.82
2022-08-03T14:15:51.039Z,44.44
2022-08-03T14:18:28.733Z,44.66
2022-08-03T14:21:06.916Z,44.57
2022-08-03T14:23:36.888Z,44.57
2022-08-03T14:26:08.837Z,44.30
2022-08-03T14:28:36.605Z,44.50
2022-08-03T14:31:08.358Z,44.56
2022-08-03T14:33:43.284Z,44.44
2022-08-03T14:36:11.183Z,44.64
2022-08-03T14:38:38.953Z,44.62
2022-08-03T14:41:06.731Z,44.69
2022-08-03T14:43:40.198Z,44.64
2022-08-03T14:46:27.917Z,44.82
2022-08-03T14:50:34.601Z,44.63
2022-08-03T14:51:51.588Z,44.95
2022-08-03T14:54:22.827Z,44.67
2022-08-03T14:56:51.061Z,44.78
2022-08-03T14:59:18.847Z,44.68
2022-08-03T15:02:04.973Z,44.44
2022-08-03T15:04:34.280Z,44.69
2022-08-03T15:07:02.038Z,44.46
2022-08-03T15:09:29.741Z,44.70
2022-08-03T15:11:57.556Z,44.78
2022-08-03T15:14:32.278Z,44.79
2022-08-03T15:17:01.233Z,44.60
2022-08-03T15:20:01.078Z,44.68
2022-08-03T15:22:19.030Z,44.56
2022-08-03T15:24:48.760Z,44.54
2022-08-03T15:27:16.636Z,44.47
2022-08-03T15:30:09.433Z,44.44
2022-08-03T15:32:33.662Z,44.45
2022-08-03T15:35:01.617Z,44.30
2022-08-03T15:37:29.468Z,44.57
2022-08-03T15:39:59.603Z,44.21
2022-08-03T15:42:30.304Z,44.38
2022-08-03T15:44:58.475Z,44.47
2022-08-03T15:47:26.776Z,44.43
2022-08-03T15:49:54.725Z,44.42
2022-08-03T15:52:22.626Z,44.50
2022-08-03T15:54:50.609Z,44.12
2022-08-03T15:57:18.887Z,44.17
2022-08-03T15:59:47.167Z,44.07
2022-08-03T16:02:15.125Z,44.37
2022-08-03T16:04:43.085Z,44.38
2022-08-03T16:07:12.859Z,44.22
2022-08-03T16:09:43.235Z,44.11
2022-08-03T16:12:16.552Z,44.24
2022-08-03T16:14:52.696Z,44.08
2022-08-03T16:17:22.697Z,44.41
2022-08-03T16:19:54.716Z,44.05
2022-08-03T16:22:26.174Z,44.11
2022-08-03T16:24:54.766Z,44.18
2022-08-03T16:28:00.429Z,44.24
2022-08-03T16:30:12.869Z,44.01
2022-08-03T16:32:40.860Z,44.24
2022-08-03T16:35:09.297Z,44.24
2022-08-03T16:37:53.781Z,44.11
2022-08-03T16:40:26.102Z,43.85
2022-08-03T16:42:54.127Z,44.00
2022-08-03T16:45:21.963Z,44.17
2022-08-03T16:48:01.650Z,44.05
2022-08-03T16:50:35.292Z,44.20
2022-08-03T16:53:10.088Z,44.38
2022-08-03T16:55:52.138Z,44.36
2022-08-03T16:58:34.762Z,44.23
2022-08-03T17:01:21.913Z,44.13
2022-08-03T17:04:03.299Z,44.13
2022-08-03T17:06:36.881Z,44.07
2022-08-03T17:09:12.083Z,44.50
2022-08-03T17:11:44.162Z,44.32
2022-08-03T17:14:22.995Z,44.33
2022-08-03T17:17:01.623Z,44.50
2022-08-03T17:19:32.265Z,44.26
2022-08-03T17:22:04.208Z,44.41
2022-08-03T17:24:41.556Z,44.17
2022-08-03T17:28:42.291Z,44.32
2022-08-03T17:30:07.781Z,44.40
2022-08-03T17:32:42.350Z,44.45
2022-08-03T17:35:11.234Z,44.33
2022-08-03T17:37:58.387Z,44.21
2022-08-03T17:40:28.975Z,44.34
2022-08-03T17:43:00.807Z,44.58
2022-08-03T17:45:42.301Z,44.57
2022-08-03T17:48:17.807Z,44.78
2022-08-03T17:50:51.554Z,44.78
2022-08-03T17:53:24.296Z,44.91
2022-08-03T17:56:04.908Z,45.02
2022-08-03T17:59:14.916Z,45.18
2022-08-03T18:02:23.636Z,45.20
2022-08-03T18:07:59.539Z,45.41
2022-08-03T18:10:35.093Z,45.51
2022-08-03T18:13:14.287Z,45.48
2022-08-03T18:16:04.490Z,45.69
2022-08-03T18:18:43.198Z,45.78
2022-08-03T18:21:16.754Z,45.92
2022-08-03T18:23:46.122Z,45.89
2022-08-03T18:26:19.318Z,46.10
2022-08-03T18:28:49.263Z,46.16
2022-08-03T18:31:33.243Z,46.14
2022-08-03T18:34:16.433Z,46.26
2022-08-03T18:36:49.030Z,46.33
2022-08-03T18:39:19.654Z,46.39
2022-08-03T18:41:47.832Z,46.45
2022-08-03T18:44:53.181Z,46.49
2022-08-03T18:47:23.218Z,46.61
2022-08-03T18:50:03.347Z,46.89
2022-08-03T18:52:39.441Z,47.00
2022-08-03T18:55:35.455Z,47.07
2022-08-03T18:58:15.860Z,47.19
2022-08-03T19:01:03.524Z,47.27
2022-08-03T19:03:43.402Z,47.27
2022-08-03T19:06:20.005Z,47.50
2022-08-03T19:09:04.453Z,47.54
2022-08-03T19:12:13.926Z,47.63
2022-08-03T19:14:39.250Z,47.73
2022-08-03T19:17:11.047Z,47.91
2022-08-03T19:19:44.867Z,47.83
2022-08-03T19:22:16.002Z,48.10
2022-08-03T19:24:45.946Z,48.23
2022-08-03T19:27:15.919Z,48.02
2022-08-03T19:29:59.944Z,48.32
2022-08-03T19:32:31.700Z,48.44
2022-08-03T19:35:03.424Z,48.49
2022-08-03T19:37:38.083Z,48.58
2022-08-03T19:40:10.222Z,48.78
2022-08-03T19:42:40.930Z,49.04
2022-08-03T19:45:11.291Z,49.04
2022-08-03T19:47:51.590Z,49.06
2022-08-03T19:50:20.668Z,49.04
2022-08-03T19:52:50.083Z,49.05
2022-08-03T19:55:18.599Z,48.94
2022-08-03T20:00:38.344Z,49.36
2022-08-03T20:03:19.677Z,49.52
2022-08-03T20:05:52.223Z,49.38
2022-08-03T20:08:22.209Z,49.73
2022-08-03T20:13:39.162Z,49.94
2022-08-03T20:16:07.051Z,49.74
2022-08-03T20:18:39.423Z,50.13
2022-08-03T20:21:14.843Z,50.34
2022-08-03T20:24:02.758Z,50.40
2022-08-03T20:26:32.244Z,50.51
2022-08-03T20:29:09.144Z,50.48
2022-08-03T20:31:37.792Z,50.65
2022-08-03T20:34:06.947Z,50.73
2022-08-03T20:36:36.900Z,50.79
2022-08-03T20:39:07.746Z,50.92
2022-08-03T20:41:35.973Z,51.25
2022-08-03T20:44:04.744Z,51.18
2022-08-03T20:46:41.688Z,51.31
2022-08-03T20:49:23.090Z,51.32
2022-08-03T20:51:53.160Z,51.53
2022-08-03T20:54:30.826Z,51.56
2022-08-03T20:57:03.847Z,51.66
2022-08-03T20:59:50.582Z,51.95
2022-08-03T21:02:29.563Z,51.94
2022-08-03T21:05:02.998Z,52.01
2022-08-03T21:08:06.324Z,52.09
2022-08-03T21:10:39.645Z,52.12
2022-08-03T21:13:03.563Z,49.98
2022-08-03T21:13:05.312Z,45.34
2022-08-03T21:13:08.996Z,49.38
2022-08-03T21:13:23.795Z,52.23
2022-08-03T21:16:07.015Z,52.43
2022-08-03T21:18:49.221Z,52.52
2022-08-03T21:21:20.136Z,52.63
2022-08-03T21:23:52.696Z,52.63
2022-08-03T21:26:22.978Z,52.78
2022-08-03T21:28:52.931Z,52.89
2022-08-03T21:31:25.719Z,52.91
2022-08-03T21:34:01.721Z,52.99
2022-08-03T21:36:32.709Z,53.13
2022-08-03T21:39:01.426Z,53.25
2022-08-03T21:41:31.977Z,53.30
2022-08-03T21:44:01.123Z,53.40
2022-08-03T21:46:35.170Z,53.47
2022-08-03T21:49:52.090Z,53.63
2022-08-03T21:51:54.533Z,53.80
2022-08-03T21:54:27.207Z,53.78
2022-08-03T21:56:54.995Z,53.85
2022-08-03T21:59:23.704Z,53.93
2022-08-03T22:01:55.422Z,54.01
2022-08-03T22:04:37.209Z,54.10
2022-08-03T22:07:15.925Z,54.20
2022-08-03T22:09:51.363Z,54.35
2022-08-03T22:12:22.730Z,54.37
2022-08-03T22:15:00.443Z,54.44
2022-08-03T22:17:55.837Z,54.59
2022-08-03T22:20:20.392Z,54.73
2022-08-03T22:22:54.947Z,54.66
2022-08-03T22:25:29.177Z,54.78
2022-08-03T22:27:58.210Z,54.82
2022-08-03T22:30:26.685Z,54.84
2022-08-03T22:32:56.367Z,54.87
2022-08-03T22:35:25.845Z,55.00
2022-08-03T22:37:57.298Z,54.80
2022-08-03T22:40:27.182Z,54.89
2022-08-03T22:42:55.189Z,54.81
2022-08-03T22:45:45.545Z,54.77
2022-08-03T22:48:11.223Z,54.86
2022-08-03T22:50:39.475Z,54.97
2022-08-03T22:53:07.683Z,54.99
2022-08-03T22:55:36.971Z,55.03
2022-08-03T22:58:04.691Z,55.00
2022-08-03T23:00:32.423Z,55.09
2022-08-03T23:03:02.626Z,55.21
2022-08-03T23:06:02.231Z,55.22
2022-08-03T23:08:25.182Z,55.33
2022-08-03T23:10:56.629Z,55.43
2022-08-03T23:13:25.464Z,55.67
2022-08-03T23:15:58.114Z,55.79
2022-08-03T23:18:31.181Z,55.65
2022-08-03T23:21:09.233Z,55.88
2022-08-03T23:23:44.155Z,55.88
2022-08-03T23:26:15.582Z,56.06
2022-08-03T23:28:47.223Z,55.99
2022-08-03T23:31:15.749Z,55.82
2022-08-03T23:33:45.722Z,56.03
2022-08-03T23:36:30.410Z,56.05
2022-08-03T23:39:02.472Z,56.14
2022-08-03T23:41:32.029Z,56.15
2022-08-03T23:44:03.639Z,56.03
2022-08-03T23:46:32.757Z,56.24
2022-08-03T23:49:00.524Z,56.37
2022-08-03T23:52:05.574Z,56.35
2022-08-03T23:54:58.357Z,56.29
2022-08-03T23:57:47.309Z,56.34
